Findlay Airport Findlay US
ICAO: KFDY
IATA: FDY
Category: Medium
Scheduled Services: No

Elevation: 813 ft
TransAlt. 18000 ft.

Airport Communications:
TOLEDO APP/DEP:120.8
ASOS:124.425
CLEVELAND RDO:122.2
CTAF/UNICOM:122.725

KFDY Zoom In..

If you have problems with the map follow the link
https://www.worldairports.se/pages/airport.php?
ICAO=KFDY

Runways:

(A) RW 07 length 5883 ft width 100 ft
---- / hdg 74

(B) RW 18 length 6498 ft width 100 ft
---- / hdg 185

(C) RW 25 length 5883 ft width 100 ft
---- / hdg 254

(D) RW 36 length 6498 ft width 100 ft
---- / hdg 5

Location; KFDY
Day. 21 / Time. 17.53 Zulu
* Altimeter: 30.27
* Temperature: 08° c. 46.4°f.
* Wind from: 340° Speed 06 kn.
Dewpoint: -02° c.
Visibility: 10 Statute Miles.
Clouds: Scattered 3900 ft.

KFDY 211753Z AUTO 34006KT 10SM SCT039 08/M02 A3027 RMK AO2 SLP253 T00781022 10083 20022 58022


Wind From 340°
Speed 06 kn.

 
 
jpsmedia.com for Web Design worldairports.se 2018   terms of use